createdAt,value
2023-01-26T00:01:30.401Z,9.50
2023-01-26T00:03:57.843Z,9.60
2023-01-26T00:06:25.903Z,9.07
2023-01-26T00:08:55.011Z,9.23
2023-01-26T00:11:26.795Z,9.80
2023-01-26T00:13:55.242Z,9.33
2023-01-26T00:16:22.602Z,9.80
2023-01-26T00:18:49.665Z,9.40
2023-01-26T00:21:19.585Z,8.20
2023-01-26T00:23:47.207Z,8.43
2023-01-26T00:26:17.038Z,8.50
2023-01-26T00:28:44.408Z,9.80
2023-01-26T00:31:14.750Z,9.10
2023-01-26T00:33:41.987Z,8.50
2023-01-26T00:36:11.060Z,8.73
2023-01-26T00:38:38.292Z,9.10
2023-01-26T00:41:05.506Z,9.80
2023-01-26T00:43:32.574Z,8.83
2023-01-26T00:45:59.637Z,9.77
2023-01-26T00:48:26.621Z,10.00
2023-01-26T00:50:53.956Z,9.90
2023-01-26T00:53:20.924Z,10.23
2023-01-26T00:55:47.846Z,9.47
2023-01-26T00:58:14.811Z,8.90
2023-01-26T01:00:41.861Z,8.70
2023-01-26T01:03:08.843Z,9.57
2023-01-26T01:05:35.971Z,9.27
2023-01-26T01:08:03.780Z,9.37
2023-01-26T01:10:30.780Z,9.13
2023-01-26T01:12:57.806Z,9.47
2023-01-26T01:15:25.255Z,8.80
2023-01-26T01:17:52.907Z,8.33
2023-01-26T01:20:20.633Z,8.47
2023-01-26T01:22:47.591Z,9.00
2023-01-26T01:25:14.525Z,9.40
2023-01-26T01:27:41.673Z,9.53
2023-01-26T01:30:09.778Z,8.70
2023-01-26T01:32:37.463Z,9.20
2023-01-26T01:35:04.700Z,8.23
2023-01-26T01:37:33.645Z,8.15
2023-01-26T01:40:00.673Z,10.10
2023-01-26T01:42:28.364Z,9.43
2023-01-26T01:45:26.419Z,9.35
2023-01-26T01:47:57.252Z,8.85
2023-01-26T01:50:26.216Z,9.03
2023-01-26T01:52:56.378Z,8.25
2023-01-26T01:55:25.729Z,8.98
2023-01-26T01:58:00.354Z,9.10
2023-01-26T02:00:28.040Z,7.38
2023-01-26T02:03:16.801Z,8.87
2023-01-26T02:06:01.995Z,8.53
2023-01-26T02:08:36.780Z,9.70
2023-01-26T02:11:15.256Z,8.40
2023-01-26T02:13:46.697Z,9.47
2023-01-26T02:16:13.776Z,8.82
2023-01-26T02:18:41.763Z,10.23
2023-01-26T02:21:16.842Z,8.85
2023-01-26T02:23:50.835Z,8.03
2023-01-26T02:26:27.586Z,8.48
2023-01-26T02:28:55.457Z,8.57
2023-01-26T02:31:24.390Z,9.97
2023-01-26T02:33:51.936Z,9.33
2023-01-26T02:36:29.560Z,8.47
2023-01-26T02:39:13.032Z,9.38
2023-01-26T02:41:59.019Z,9.93
2023-01-26T02:44:28.132Z,7.93
2023-01-26T02:46:55.149Z,9.87
2023-01-26T02:49:40.745Z,8.83
2023-01-26T02:52:08.358Z,9.07
2023-01-26T02:54:54.185Z,9.17
2023-01-26T02:57:21.210Z,8.53
2023-01-26T02:59:48.286Z,9.27
2023-01-26T03:02:15.700Z,8.77
2023-01-26T03:04:43.919Z,8.70
2023-01-26T03:07:11.998Z,8.37
2023-01-26T03:09:39.026Z,9.87
2023-01-26T03:12:08.699Z,8.57
2023-01-26T03:14:35.761Z,8.13
2023-01-26T03:17:02.834Z,7.57
2023-01-26T03:19:49.465Z,7.07
2023-01-26T03:22:34.870Z,8.97
2023-01-26T03:25:20.443Z,8.00
2023-01-26T03:27:49.719Z,8.03
2023-01-26T03:30:19.006Z,8.20
2023-01-26T03:32:47.989Z,9.23
2023-01-26T03:35:22.699Z,8.97
2023-01-26T03:37:54.986Z,8.43
2023-01-26T03:40:57.802Z,8.03
2023-01-26T03:43:43.633Z,7.90
2023-01-26T03:46:29.257Z,8.87
2023-01-26T03:49:14.816Z,8.00
2023-01-26T03:52:00.031Z,8.87
2023-01-26T03:54:46.196Z,9.70
2023-01-26T03:57:13.383Z,9.17
2023-01-26T03:59:40.442Z,8.57
2023-01-26T04:02:31.093Z,10.03
2023-01-26T04:05:17.424Z,7.73
2023-01-26T04:08:07.965Z,8.93
2023-01-26T04:10:35.183Z,7.97
2023-01-26T04:13:22.652Z,8.57
2023-01-26T04:16:17.547Z,7.80
2023-01-26T04:19:03.167Z,9.23
2023-01-26T04:21:33.444Z,8.17
2023-01-26T04:24:16.733Z,9.20
2023-01-26T04:26:44.655Z,9.07
2023-01-26T04:29:16.686Z,9.20
2023-01-26T04:31:45.486Z,9.63
2023-01-26T04:34:16.028Z,9.80
2023-01-26T04:36:44.264Z,8.90
2023-01-26T04:39:11.447Z,9.03
2023-01-26T04:41:42.634Z,8.97
2023-01-26T04:44:12.592Z,10.00
2023-01-26T04:46:39.856Z,8.73
2023-01-26T04:49:07.218Z,9.77
2023-01-26T04:51:35.268Z,9.23
2023-01-26T04:54:03.097Z,10.23
2023-01-26T04:56:34.709Z,9.77
2023-01-26T04:59:05.214Z,9.33
2023-01-26T05:01:33.302Z,9.63
2023-01-26T05:04:01.823Z,11.03
2023-01-26T05:06:30.736Z,10.63
2023-01-26T05:08:58.370Z,11.10
2023-01-26T05:11:27.140Z,10.10
2023-01-26T05:14:08.379Z,9.57
2023-01-26T05:17:04.417Z,9.37
2023-01-26T05:19:47.468Z,9.90
2023-01-26T05:22:20.461Z,10.27
2023-01-26T05:25:06.321Z,10.07
2023-01-26T05:27:53.026Z,9.40
2023-01-26T05:30:21.236Z,11.63
2023-01-26T05:32:49.872Z,9.63
2023-01-26T05:35:17.041Z,9.50
2023-01-26T05:37:45.891Z,8.23
2023-01-26T05:40:14.262Z,10.03
2023-01-26T05:42:43.248Z,9.87
2023-01-26T05:45:48.939Z,9.83
2023-01-26T05:48:17.524Z,9.60
2023-01-26T05:50:45.901Z,8.90
2023-01-26T05:53:21.688Z,8.87
2023-01-26T05:55:49.164Z,9.00
2023-01-26T05:58:18.965Z,9.73
2023-01-26T06:00:46.039Z,9.40
2023-01-26T06:03:20.287Z,9.67
2023-01-26T06:05:53.855Z,10.23
2023-01-26T06:08:37.127Z,9.57
2023-01-26T06:11:22.663Z,10.27
2023-01-26T06:14:01.152Z,8.63
2023-01-26T06:16:29.493Z,9.47
2023-01-26T06:18:56.564Z,10.10
2023-01-26T06:21:24.027Z,10.63
2023-01-26T06:23:51.055Z,9.27
2023-01-26T06:26:18.062Z,9.70
2023-01-26T06:28:46.517Z,9.50
2023-01-26T06:31:14.699Z,10.47
2023-01-26T06:33:42.615Z,10.67
2023-01-26T06:36:15.684Z,9.93
2023-01-26T06:38:54.033Z,10.03
2023-01-26T06:41:22.748Z,9.97
2023-01-26T06:43:50.762Z,9.37
2023-01-26T06:46:18.352Z,9.17
2023-01-26T06:48:46.276Z,10.45
2023-01-26T06:51:16.320Z,11.07
2023-01-26T06:53:48.457Z,11.32
2023-01-26T06:56:24.684Z,11.47
2023-01-26T06:59:11.944Z,11.25
2023-01-26T07:02:20.544Z,11.17
2023-01-26T07:04:48.485Z,11.20
2023-01-26T07:07:15.871Z,10.40
2023-01-26T07:09:42.897Z,9.80
2023-01-26T07:12:09.944Z,11.00
2023-01-26T07:14:36.980Z,12.27
2023-01-26T07:17:04.236Z,11.55
2023-01-26T07:19:33.341Z,10.23
2023-01-26T07:22:01.687Z,10.13
2023-01-26T07:24:29.488Z,10.67
2023-01-26T07:26:57.018Z,11.55
2023-01-26T07:29:24.055Z,10.25
2023-01-26T07:31:51.291Z,9.98
2023-01-26T07:34:18.347Z,12.10
2023-01-26T07:36:45.774Z,11.07
2023-01-26T07:39:12.807Z,10.02
2023-01-26T07:41:39.897Z,11.18
2023-01-26T07:44:26.657Z,10.63
2023-01-26T07:46:54.605Z,10.55
2023-01-26T07:49:21.626Z,10.68
2023-01-26T07:51:48.740Z,11.15
2023-01-26T07:54:15.660Z,10.02
2023-01-26T07:56:44.247Z,9.77
2023-01-26T07:59:12.522Z,9.32
2023-01-26T08:01:39.698Z,11.13
2023-01-26T08:04:07.553Z,10.35
2023-01-26T08:06:34.582Z,9.02
2023-01-26T08:09:01.687Z,10.35
2023-01-26T08:11:28.868Z,9.90
2023-01-26T08:13:56.313Z,13.25
2023-01-26T08:16:23.397Z,10.68
2023-01-26T08:18:50.441Z,10.73
2023-01-26T08:21:18.737Z,11.27
2023-01-26T08:23:50.586Z,9.77
2023-01-26T08:26:19.164Z,9.82
2023-01-26T08:28:46.616Z,9.07
2023-01-26T08:31:20.667Z,10.50
2023-01-26T08:33:53.411Z,9.65
2023-01-26T08:36:22.613Z,9.48
2023-01-26T08:38:50.596Z,9.95
2023-01-26T08:41:18.055Z,9.50
2023-01-26T08:43:45.124Z,9.68
2023-01-26T08:46:12.159Z,8.88
2023-01-26T08:48:39.276Z,9.00
2023-01-26T08:51:08.169Z,9.05
2023-01-26T08:53:37.480Z,9.68
2023-01-26T08:56:06.366Z,9.65
2023-01-26T08:58:33.923Z,8.32
2023-01-26T09:01:08.060Z,9.27
2023-01-26T09:03:35.676Z,8.88
2023-01-26T09:06:04.643Z,8.43
2023-01-26T09:08:32.205Z,9.05
2023-01-26T09:10:59.432Z,8.40
2023-01-26T09:13:26.685Z,7.60
2023-01-26T09:15:53.998Z,7.55
2023-01-26T09:18:21.044Z,9.00
2023-01-26T09:20:48.140Z,8.90
2023-01-26T09:23:17.998Z,8.75
2023-01-26T09:25:45.407Z,9.60
2023-01-26T09:28:12.639Z,8.20
2023-01-26T09:30:39.806Z,8.10
2023-01-26T09:33:07.400Z,9.13
2023-01-26T09:35:34.454Z,7.78
2023-01-26T09:38:01.547Z,8.40
2023-01-26T09:40:58.095Z,8.43
2023-01-26T09:43:27.804Z,8.07
2023-01-26T09:46:45.973Z,7.70
2023-01-26T09:49:21.833Z,7.53
2023-01-26T09:51:52.008Z,7.55
2023-01-26T09:54:37.786Z,8.52
2023-01-26T09:57:16.816Z,8.07
2023-01-26T09:59:59.000Z,9.05
2023-01-26T10:03:13.963Z,7.93
2023-01-26T10:05:55.969Z,7.63
2023-01-26T10:08:43.815Z,8.23
2023-01-26T10:11:38.360Z,8.23
2023-01-26T10:14:14.964Z,7.68
2023-01-26T10:16:48.882Z,8.35
2023-01-26T10:19:31.318Z,6.80
2023-01-26T10:22:03.855Z,9.07
2023-01-26T10:24:33.530Z,7.80
2023-01-26T10:27:00.595Z,8.70
2023-01-26T10:29:27.650Z,8.40
2023-01-26T10:31:55.585Z,8.35
2023-01-26T10:34:27.654Z,7.93
2023-01-26T10:37:14.542Z,7.70
2023-01-26T10:40:08.095Z,9.48
2023-01-26T10:42:36.524Z,7.75
2023-01-26T10:45:27.610Z,8.55
2023-01-26T10:48:13.490Z,8.50
2023-01-26T10:50:40.547Z,9.20
2023-01-26T10:53:17.483Z,9.35
2023-01-26T10:55:57.923Z,9.48
2023-01-26T10:58:46.842Z,9.02
2023-01-26T11:01:16.661Z,8.27
2023-01-26T11:04:06.148Z,8.35
2023-01-26T11:06:34.361Z,10.02
2023-01-26T11:09:21.639Z,9.38
2023-01-26T11:12:18.370Z,8.75
2023-01-26T11:15:01.707Z,7.60
2023-01-26T11:17:51.297Z,9.25
2023-01-26T11:20:44.956Z,7.85
2023-01-26T11:23:45.931Z,7.78
2023-01-26T11:26:50.251Z,9.18
2023-01-26T11:29:31.798Z,8.25
2023-01-26T11:32:05.819Z,8.63
2023-01-26T11:35:04.778Z,8.30
2023-01-26T11:38:22.825Z,8.10
2023-01-26T11:40:58.606Z,8.68
2023-01-26T11:44:10.679Z,7.93
2023-01-26T11:46:57.862Z,7.38
2023-01-26T11:50:01.980Z,8.20
2023-01-26T11:53:25.413Z,7.72
2023-01-26T11:56:04.340Z,8.48
2023-01-26T11:59:25.335Z,8.90
2023-01-26T12:02:13.855Z,8.73
2023-01-26T12:04:45.845Z,9.00
2023-01-26T12:07:51.679Z,9.30
2023-01-26T12:10:23.390Z,13.15
2023-01-26T12:13:05.747Z,8.85
2023-01-26T12:15:39.986Z,8.63
2023-01-26T12:18:10.055Z,9.45
2023-01-26T12:20:45.849Z,7.47
2023-01-26T12:23:31.304Z,8.02
2023-01-26T12:26:03.168Z,7.85
2023-01-26T12:28:48.131Z,7.72
2023-01-26T12:31:24.767Z,8.48
2023-01-26T12:33:55.910Z,8.80
2023-01-26T12:36:43.911Z,8.52
2023-01-26T12:39:30.606Z,8.60
2023-01-26T12:42:12.492Z,10.55
2023-01-26T12:44:53.504Z,9.85
2023-01-26T12:47:44.897Z,9.30
2023-01-26T12:50:35.653Z,10.70
2023-01-26T12:53:17.543Z,10.73
2023-01-26T12:55:51.027Z,9.88
2023-01-26T12:58:27.280Z,9.82
2023-01-26T13:01:10.619Z,10.20
2023-01-26T13:03:45.151Z,9.45
2023-01-26T13:06:15.141Z,10.40
2023-01-26T13:08:53.736Z,9.60
2023-01-26T13:11:39.428Z,11.40
2023-01-26T13:14:25.831Z,10.35
2023-01-26T13:16:53.078Z,11.10
2023-01-26T13:19:38.945Z,11.27
2023-01-26T13:22:25.827Z,11.32
2023-01-26T13:24:55.751Z,11.27
2023-01-26T13:27:38.990Z,11.95
2023-01-26T13:30:24.862Z,10.75
2023-01-26T13:32:54.979Z,11.63
2023-01-26T13:35:24.510Z,12.40
2023-01-26T13:38:03.701Z,12.82
2023-01-26T13:40:36.636Z,11.13
2023-01-26T13:43:25.741Z,11.73
2023-01-26T13:46:08.166Z,10.50
2023-01-26T13:48:47.499Z,10.40
2023-01-26T13:51:18.914Z,10.65
2023-01-26T13:54:07.479Z,11.48
2023-01-26T13:56:35.837Z,11.80
2023-01-26T13:59:20.868Z,11.70
2023-01-26T14:01:50.921Z,13.27
2023-01-26T14:04:26.923Z,12.27
2023-01-26T14:07:10.053Z,11.73
2023-01-26T14:10:01.391Z,11.27
2023-01-26T14:12:36.483Z,11.75
2023-01-26T14:15:07.486Z,13.93
2023-01-26T14:17:37.335Z,13.52
2023-01-26T14:20:39.753Z,13.48
2023-01-26T14:23:21.242Z,12.82
2023-01-26T14:26:01.144Z,12.35
2023-01-26T14:28:42.303Z,12.43
2023-01-26T14:31:21.061Z,13.63
2023-01-26T14:33:57.317Z,14.02
2023-01-26T14:36:29.535Z,12.00
2023-01-26T14:38:56.960Z,13.20
2023-01-26T14:41:33.753Z,13.55
2023-01-26T14:44:06.154Z,12.80
2023-01-26T14:46:52.432Z,13.25
2023-01-26T14:49:31.240Z,12.55
2023-01-26T14:51:58.958Z,11.20
2023-01-26T14:54:30.525Z,14.07
2023-01-26T14:56:59.223Z,13.43
2023-01-26T14:59:38.702Z,11.82
2023-01-26T15:02:19.131Z,11.65
2023-01-26T15:05:14.510Z,12.18
2023-01-26T15:07:41.456Z,12.07
2023-01-26T15:10:42.159Z,13.02
2023-01-26T15:13:14.862Z,11.93
2023-01-26T15:15:48.707Z,12.43
2023-01-26T15:18:21.936Z,12.45
2023-01-26T15:21:01.711Z,12.88
2023-01-26T15:23:37.111Z,12.48
2023-01-26T15:26:32.942Z,12.43
2023-01-26T15:29:03.336Z,12.73
2023-01-26T15:31:39.056Z,12.20
2023-01-26T15:34:27.164Z,13.07
2023-01-26T15:36:54.380Z,12.35
2023-01-26T15:39:21.515Z,12.43
2023-01-26T15:42:14.004Z,13.40
2023-01-26T15:44:41.064Z,13.85
2023-01-26T15:47:12.299Z,11.88
2023-01-26T15:49:39.932Z,13.05
2023-01-26T15:52:14.611Z,12.27
2023-01-26T15:54:41.600Z,11.38
2023-01-26T15:57:11.612Z,12.55
2023-01-26T15:59:39.420Z,11.38
2023-01-26T16:02:24.564Z,10.77
2023-01-26T16:04:51.587Z,11.60
2023-01-26T16:07:18.957Z,11.70
2023-01-26T16:09:45.932Z,13.20
2023-01-26T16:12:33.461Z,12.27
2023-01-26T16:17:27.763Z,12.85
2023-01-26T16:19:54.867Z,10.75
2023-01-26T16:22:21.901Z,11.80
2023-01-26T16:24:48.894Z,10.15
2023-01-26T16:27:15.888Z,11.43
2023-01-26T16:29:42.836Z,11.50
2023-01-26T16:32:26.517Z,12.93
2023-01-26T16:34:53.593Z,12.23
2023-01-26T16:37:20.595Z,12.30
2023-01-26T16:39:47.544Z,11.15
2023-01-26T16:42:19.302Z,12.02
2023-01-26T16:44:47.051Z,11.50
2023-01-26T16:47:14.033Z,12.55
2023-01-26T16:49:40.982Z,10.77
2023-01-26T16:52:09.548Z,12.15
2023-01-26T16:54:36.495Z,10.55
2023-01-26T16:57:03.593Z,10.18
2023-01-26T16:59:30.663Z,11.13
2023-01-26T17:01:57.994Z,10.43
2023-01-26T17:04:25.018Z,12.18
2023-01-26T17:06:52.048Z,11.77
2023-01-26T17:09:20.692Z,10.80
2023-01-26T17:11:48.266Z,11.77
2023-01-26T17:14:18.991Z,11.35
2023-01-26T17:16:46.066Z,14.60
2023-01-26T17:19:13.059Z,12.25
2023-01-26T17:21:40.048Z,11.67
2023-01-26T17:24:07.392Z,11.35
2023-01-26T17:26:34.371Z,10.98
2023-01-26T17:29:01.346Z,11.23
2023-01-26T17:31:28.833Z,12.32
2023-01-26T17:33:56.062Z,11.20
2023-01-26T17:36:23.224Z,11.80
2023-01-26T17:38:50.370Z,12.13
2023-01-26T17:41:17.856Z,11.85
2023-01-26T17:43:45.934Z,11.73
2023-01-26T17:46:15.635Z,12.70
2023-01-26T17:48:45.271Z,12.15
2023-01-26T17:51:16.713Z,10.07
2023-01-26T17:53:45.277Z,10.88
2023-01-26T17:56:15.484Z,11.95
2023-01-26T17:58:42.564Z,11.82
2023-01-26T18:01:10.410Z,11.50
2023-01-26T18:03:41.274Z,10.93
2023-01-26T18:06:09.170Z,13.32
2023-01-26T18:08:37.846Z,11.00
2023-01-26T18:11:07.312Z,10.25
2023-01-26T18:13:34.380Z,10.43
2023-01-26T18:16:02.011Z,10.87
2023-01-26T18:18:29.978Z,11.00
2023-01-26T18:20:57.562Z,11.23
2023-01-26T18:23:25.372Z,11.23
2023-01-26T18:25:52.857Z,11.27
2023-01-26T18:28:19.861Z,11.55
2023-01-26T18:30:46.893Z,10.82
2023-01-26T18:33:14.008Z,12.70
2023-01-26T18:35:41.016Z,12.82
2023-01-26T18:38:08.100Z,11.00
2023-01-26T18:40:35.334Z,12.27
2023-01-26T18:43:02.308Z,12.70
2023-01-26T18:45:29.301Z,13.38
2023-01-26T18:47:56.394Z,10.68
2023-01-26T18:50:23.399Z,11.90
2023-01-26T18:52:51.648Z,12.38
2023-01-26T18:55:18.610Z,11.23
2023-01-26T18:57:45.572Z,12.00
2023-01-26T19:00:14.077Z,11.90
2023-01-26T19:02:41.163Z,12.02
2023-01-26T19:05:09.234Z,12.13
2023-01-26T19:07:36.334Z,11.47
2023-01-26T19:10:05.073Z,11.80
2023-01-26T19:12:32.416Z,10.63
2023-01-26T19:14:59.412Z,11.00
2023-01-26T19:17:26.480Z,10.25
2023-01-26T19:19:53.483Z,11.80
2023-01-26T19:22:20.789Z,11.15
2023-01-26T19:24:47.783Z,11.48
2023-01-26T19:27:14.896Z,11.38
2023-01-26T19:29:41.917Z,11.90
2023-01-26T19:32:11.356Z,10.35
2023-01-26T19:34:38.353Z,11.43
2023-01-26T19:37:05.357Z,10.05
2023-01-26T19:39:33.513Z,12.32
2023-01-26T19:42:00.485Z,10.95
2023-01-26T19:44:27.525Z,12.57
2023-01-26T19:46:55.858Z,10.33
2023-01-26T19:49:25.083Z,10.52
2023-01-26T19:51:53.900Z,11.80
2023-01-26T19:54:20.878Z,12.02
2023-01-26T19:56:47.950Z,10.93
2023-01-26T19:59:15.013Z,11.37
2023-01-26T20:01:42.061Z,11.90
2023-01-26T20:04:13.638Z,10.73
2023-01-26T20:06:40.660Z,12.10
2023-01-26T20:09:08.976Z,13.10
2023-01-26T20:11:36.517Z,10.70
2023-01-26T20:14:11.068Z,12.47
2023-01-26T20:16:38.288Z,12.23
2023-01-26T20:19:05.336Z,12.77
2023-01-26T20:21:33.000Z,11.57
2023-01-26T20:24:05.274Z,12.57
2023-01-26T20:26:33.996Z,12.60
2023-01-26T20:29:01.078Z,13.27
2023-01-26T20:31:28.234Z,10.63
2023-01-26T20:33:56.029Z,12.03
2023-01-26T20:36:27.320Z,11.73
2023-01-26T20:38:54.767Z,11.32
2023-01-26T20:41:24.968Z,12.35
2023-01-26T20:43:59.917Z,12.65
2023-01-26T20:46:30.340Z,11.18
2023-01-26T20:48:58.079Z,12.07
2023-01-26T20:51:29.533Z,11.97
2023-01-26T20:53:57.822Z,11.97
2023-01-26T20:56:24.910Z,11.10
2023-01-26T20:58:55.883Z,10.00
2023-01-26T21:01:24.244Z,10.77
2023-01-26T21:03:51.937Z,12.10
2023-01-26T21:06:20.826Z,10.10
2023-01-26T21:08:51.922Z,10.67
2023-01-26T21:11:19.584Z,10.70
2023-01-26T21:13:46.697Z,10.13
2023-01-26T21:16:16.103Z,10.43
2023-01-26T21:18:44.840Z,11.05
2023-01-26T21:21:18.690Z,10.38
2023-01-26T21:23:46.882Z,8.80
2023-01-26T21:26:17.361Z,11.00
2023-01-26T21:28:44.837Z,11.23
2023-01-26T21:31:15.672Z,9.03
2023-01-26T21:33:45.335Z,12.15
2023-01-26T21:36:14.904Z,11.03
2023-01-26T21:38:45.307Z,13.18
2023-01-26T21:41:42.147Z,12.18
2023-01-26T21:44:12.927Z,12.33
2023-01-26T21:46:40.516Z,11.35
2023-01-26T21:49:08.599Z,10.88
2023-01-26T21:51:54.316Z,10.85
2023-01-26T21:54:21.331Z,10.70
2023-01-26T21:56:48.875Z,10.93
2023-01-26T21:59:17.289Z,10.63
2023-01-26T22:01:50.076Z,11.65
2023-01-26T22:04:26.502Z,9.97
2023-01-26T22:06:54.160Z,10.82
2023-01-26T22:09:23.179Z,12.07
2023-01-26T22:11:51.440Z,10.60
2023-01-26T22:14:23.762Z,10.90
2023-01-26T22:16:50.867Z,10.27
2023-01-26T22:19:18.196Z,11.35
2023-01-26T22:21:45.608Z,10.87
2023-01-26T22:24:14.796Z,9.90
2023-01-26T22:26:42.288Z,11.07
2023-01-26T22:29:11.930Z,10.87
2023-01-26T22:31:39.089Z,10.02
2023-01-26T22:34:06.078Z,11.57
2023-01-26T22:36:33.582Z,10.97
2023-01-26T22:39:00.704Z,11.30
2023-01-26T22:41:30.181Z,11.18
2023-01-26T22:44:00.078Z,11.38
2023-01-26T22:46:29.034Z,11.48
2023-01-26T22:48:57.446Z,10.93
2023-01-26T22:51:29.876Z,10.18
2023-01-26T22:53:58.384Z,10.00
2023-01-26T22:56:26.965Z,9.77
2023-01-26T22:58:59.062Z,9.67
2023-01-26T23:01:30.024Z,9.70
2023-01-26T23:03:58.153Z,9.25
2023-01-26T23:06:26.233Z,10.77
2023-01-26T23:08:54.271Z,10.47
2023-01-26T23:11:23.841Z,9.93
2023-01-26T23:13:52.157Z,10.57
2023-01-26T23:16:19.695Z,9.65
2023-01-26T23:18:46.722Z,9.73
2023-01-26T23:21:13.770Z,9.57
2023-01-26T23:23:41.263Z,10.53
2023-01-26T23:26:09.368Z,10.00
2023-01-26T23:28:42.237Z,8.97
2023-01-26T23:31:10.490Z,10.47
2023-01-26T23:33:38.520Z,9.47
2023-01-26T23:36:07.000Z,10.63
2023-01-26T23:38:33.953Z,9.97
2023-01-26T23:41:01.335Z,10.90
2023-01-26T23:43:28.723Z,10.77
2023-01-26T23:45:56.915Z,9.97
2023-01-26T23:48:25.062Z,9.20
2023-01-26T23:51:04.185Z,9.20
2023-01-26T23:53:31.536Z,9.40
2023-01-26T23:56:05.874Z,9.87
2023-01-26T23:58:32.913Z,10.37
